Time;durP1;ratioP1;P1;durP2;ratioP2;P2;SDS_P1;SDS_P2;PMS_P1;PMS_P2;Temp;Humidity;BMP_temperature;BMP_pressure;BME280_temperature;BME280_humidity;BME280_pressure;Samples;Min_cycle;Max_cycle;Signal;HPM_P1;HPM_P2
2022/08/22 00:02:28;;;;;;;0.70;0.20;;;21.90;99.90;;;;;;5014308;28;20550;-73
2022/08/22 00:05:05;;;;;;;0.70;0.20;;;21.80;99.90;;;;;;5012283;28;20530;-73
2022/08/22 00:07:43;;;;;;;0.70;0.20;;;21.80;99.90;;;;;;5012006;28;20462;-72
2022/08/22 00:10:17;;;;;;;0.70;0.10;;;21.80;99.90;;;;;;5011513;28;20480;-72
2022/08/22 00:12:58;;;;;;;0.70;0.10;;;21.80;99.90;;;;;;5001446;28;20985;-72
2022/08/22 00:15:33;;;;;;;0.70;0.10;;;21.80;99.90;;;;;;5011452;28;20455;-72
2022/08/22 00:18:17;;;;;;;0.70;0.10;;;21.70;99.90;;;;;;5012112;28;20494;-73
2022/08/22 00:20:52;;;;;;;0.70;0.10;;;21.70;99.90;;;;;;5011736;28;20471;-72
2022/08/22 00:23:27;;;;;;;0.70;0.10;;;21.70;99.90;;;;;;5007032;28;20487;-72
2022/08/22 00:26:01;;;;;;;0.70;0.10;;;21.60;99.90;;;;;;5013888;28;20456;-72
2022/08/22 00:28:34;;;;;;;0.70;0.20;;;21.60;99.90;;;;;;4998239;28;20447;-72
2022/08/22 00:31:13;;;;;;;0.70;0.10;;;21.50;99.90;;;;;;5015802;28;20476;-73
2022/08/22 00:33:47;;;;;;;0.70;0.10;;;21.50;99.90;;;;;;5015480;28;20479;-73
2022/08/22 00:36:24;;;;;;;0.70;0.10;;;21.50;99.90;;;;;;5014993;28;20457;-73
2022/08/22 00:38:56;;;;;;;0.70;0.20;;;21.40;99.90;;;;;;5035180;28;20449;-73
2022/08/22 00:41:36;;;;;;;0.70;0.10;;;21.40;99.90;;;;;;5035583;28;20451;-73
2022/08/22 00:44:36;;;;;;;0.70;0.10;;;21.40;99.90;;;;;;5035845;28;20482;-73
2022/08/22 00:47:20;;;;;;;0.70;0.10;;;21.40;99.90;;;;;;5037902;28;20461;-74
2022/08/22 00:50:19;;;;;;;0.70;0.17;;;21.30;99.90;;;;;;5030087;28;20459;-73
2022/08/22 00:53:16;;;;;;;0.70;0.20;;;21.30;99.90;;;;;;5015423;28;21002;-73
2022/08/22 00:56:06;;;;;;;0.70;0.17;;;21.20;99.90;;;;;;4998872;28;20465;-72
2022/08/22 00:59:03;;;;;;;0.70;0.10;;;21.20;99.90;;;;;;5014775;28;20447;-74
2022/08/22 01:01:55;;;;;;;0.70;0.10;;;21.20;99.90;;;;;;5015101;28;20532;-72
2022/08/22 01:04:49;;;;;;;0.70;0.10;;;21.20;99.90;;;;;;5014288;28;20488;-73
2022/08/22 01:07:32;;;;;;;0.70;0.10;;;21.20;99.90;;;;;;5014340;28;20447;-72
2022/08/22 01:10:18;;;;;;;0.70;0.10;;;21.20;99.90;;;;;;5014776;28;20517;-73
2022/08/22 01:13:02;;;;;;;0.70;0.10;;;21.20;99.90;;;;;;5014396;28;20432;-73
2022/08/22 01:15:34;;;;;;;0.70;0.20;;;21.20;99.90;;;;;;5014095;28;20965;-72
2022/08/22 01:18:26;;;;;;;0.70;0.20;;;21.20;99.90;;;;;;5013619;28;20448;-72
2022/08/22 01:21:38;;;;;;;0.70;0.10;;;21.20;99.90;;;;;;5014055;28;20471;-72
2022/08/22 01:25:16;;;;;;;0.70;0.17;;;21.10;99.90;;;;;;5003854;28;20503;-73
2022/08/22 01:28:04;;;;;;;0.70;0.10;;;21.10;99.90;;;;;;5013576;28;20534;-73
2022/08/22 01:30:53;;;;;;;0.70;0.10;;;21.10;99.90;;;;;;5003755;28;20551;-73
2022/08/22 01:33:57;;;;;;;0.70;0.10;;;21.10;99.90;;;;;;5013823;28;20455;-73
2022/08/22 01:36:52;;;;;;;2.40;2.30;;;21.10;99.90;;;;;;4957371;28;20966;-73
2022/08/22 01:39:55;;;;;;;0.70;0.20;;;21.10;99.90;;;;;;5014226;28;20471;-74
2022/08/22 01:42:50;;;;;;;0.70;0.20;;;21.10;99.90;;;;;;4995262;28;20455;-73
2022/08/22 01:45:36;;;;;;;0.70;0.20;;;21.00;99.90;;;;;;5013376;28;21009;-72
2022/08/22 01:48:11;;;;;;;0.70;0.20;;;21.00;99.90;;;;;;4993810;28;20827;-74
2022/08/22 01:50:44;;;;;;;0.70;0.10;;;21.00;99.90;;;;;;4993892;28;20493;-74
2022/08/22 01:53:21;;;;;;;0.70;0.20;;;21.00;99.90;;;;;;4993755;28;20437;-73
2022/08/22 01:55:59;;;;;;;0.70;0.10;;;21.00;99.90;;;;;;4993847;28;20441;-73
2022/08/22 01:58:29;;;;;;;0.70;0.20;;;21.00;99.90;;;;;;4993729;28;20460;-73
2022/08/22 02:01:13;;;;;;;0.70;0.10;;;21.00;99.90;;;;;;5010188;28;20476;-73
2022/08/22 02:03:55;;;;;;;0.70;0.10;;;21.10;99.90;;;;;;5013380;28;20598;-74
2022/08/22 02:06:33;;;;;;;0.70;0.10;;;21.10;99.90;;;;;;5014835;28;20448;-73
2022/08/22 02:09:09;;;;;;;0.70;0.20;;;21.10;99.90;;;;;;5014263;28;20455;-73
2022/08/22 02:11:44;;;;;;;0.70;0.10;;;21.10;99.90;;;;;;5012758;28;20950;-73
2022/08/22 02:14:29;;;;;;;0.70;0.20;;;21.10;99.90;;;;;;5009762;28;20532;-72
2022/08/22 02:17:06;;;;;;;0.70;0.20;;;21.00;99.90;;;;;;5013397;28;20443;-72
2022/08/22 02:20:06;;;;;;;0.70;0.10;;;21.00;99.90;;;;;;5012873;28;20460;-73
2022/08/22 02:22:41;;;;;;;0.70;0.20;;;21.00;99.90;;;;;;5012405;28;20562;-72
2022/08/22 02:25:19;;;;;;;0.70;0.10;;;20.90;99.90;;;;;;5013146;28;20488;-74
2022/08/22 02:27:54;;;;;;;0.70;0.10;;;20.90;99.90;;;;;;5015861;28;20459;-73
2022/08/22 02:30:28;;;;;;;0.70;0.20;;;20.90;99.90;;;;;;5003716;28;20557;-74
2022/08/22 02:33:04;;;;;;;0.70;0.10;;;20.90;99.90;;;;;;5019331;28;20467;-73
2022/08/22 02:35:37;;;;;;;0.70;0.20;;;20.90;99.90;;;;;;5013332;28;20527;-74
2022/08/22 02:38:22;;;;;;;0.70;0.10;;;20.90;99.90;;;;;;5014550;28;20448;-74
2022/08/22 02:41:02;;;;;;;0.80;0.40;;;21.00;99.90;;;;;;5014598;28;20477;-73
2022/08/22 02:43:38;;;;;;;0.70;0.20;;;20.90;99.90;;;;;;5014053;28;20555;-72
2022/08/22 02:46:17;;;;;;;0.60;0.10;;;20.90;99.90;;;;;;5012847;28;20440;-73
2022/08/22 02:48:52;;;;;;;0.70;0.10;;;20.90;99.90;;;;;;5012151;28;20444;-73
2022/08/22 02:51:28;;;;;;;0.70;0.10;;;20.90;99.90;;;;;;5012622;28;20455;-73
2022/08/22 02:54:09;;;;;;;0.70;0.17;;;20.80;99.90;;;;;;5012610;28;20432;-72
2022/08/22 02:56:44;;;;;;;0.70;0.10;;;20.90;99.90;;;;;;5012236;28;20456;-73
2022/08/22 02:59:22;;;;;;;0.67;0.10;;;20.90;99.90;;;;;;5013077;28;20543;-73
2022/08/22 03:01:51;;;;;;;0.70;0.10;;;20.90;99.90;;;;;;5013374;28;20450;-73
2022/08/22 03:04:43;;;;;;;0.70;0.20;;;20.90;99.90;;;;;;5015615;28;20490;-72
2022/08/22 03:07:17;;;;;;;0.70;0.20;;;20.20;99.90;;;;;;5012522;28;20444;-72
2022/08/22 03:09:51;;;;;;;0.70;0.13;;;20.90;99.90;;;;;;5011878;28;20468;-72
2022/08/22 03:12:30;;;;;;;0.70;0.10;;;20.90;99.90;;;;;;5012411;28;20958;-73
2022/08/22 03:15:05;;;;;;;0.70;0.20;;;20.90;99.90;;;;;;5012031;28;20953;-72
2022/08/22 03:17:38;;;;;;;0.70;0.10;;;20.80;99.90;;;;;;5012500;28;20444;-72
2022/08/22 03:20:11;;;;;;;0.70;0.20;;;20.80;99.90;;;;;;5014604;28;20496;-73
2022/08/22 03:22:48;;;;;;;0.70;0.10;;;20.80;99.90;;;;;;5015443;28;20447;-73
2022/08/22 03:25:25;;;;;;;0.70;0.10;;;20.70;99.90;;;;;;5014742;28;20479;-72
2022/08/22 03:27:59;;;;;;;0.70;0.10;;;20.70;99.90;;;;;;5012802;28;20503;-74
2022/08/22 03:30:34;;;;;;;0.70;0.10;;;20.70;99.90;;;;;;5012258;28;20534;-73
2022/08/22 03:33:16;;;;;;;0.90;0.30;;;20.70;99.90;;;;;;5013823;28;20463;-72
2022/08/22 03:36:02;;;;;;;0.70;0.17;;;20.70;99.90;;;;;;5012014;28;20448;-74
2022/08/22 03:38:47;;;;;;;0.70;0.10;;;20.70;99.90;;;;;;5012097;28;20463;-73
2022/08/22 03:41:34;;;;;;;0.70;0.10;;;20.70;99.90;;;;;;5012142;28;20440;-72
2022/08/22 03:44:44;;;;;;;0.70;0.10;;;20.70;99.90;;;;;;5012070;28;20454;-73
2022/08/22 03:47:57;;;;;;;0.70;0.20;;;20.70;99.90;;;;;;4951601;29;20446;-73
2022/08/22 03:50:59;;;;;;;0.60;0.10;;;20.60;99.90;;;;;;4977049;28;20499;-73
2022/08/22 03:54:03;;;;;;;0.70;0.20;;;20.60;99.90;;;;;;5012058;28;20455;-73
2022/08/22 03:57:05;;;;;;;0.70;0.10;;;20.50;99.90;;;;;;4997272;28;20541;-73
2022/08/22 04:00:10;;;;;;;0.70;0.10;;;20.40;99.90;;;;;;4957144;28;20557;-72
2022/08/22 04:03:24;;;;;;;0.70;0.10;;;20.40;99.90;;;;;;4998243;28;20449;-72
2022/08/22 04:06:25;;;;;;;0.70;0.10;;;20.40;99.90;;;;;;4999653;28;20485;-73
2022/08/22 04:09:41;;;;;;;0.80;0.20;;;20.30;99.90;;;;;;4982281;28;20466;-72
2022/08/22 04:12:34;;;;;;;0.70;0.10;;;20.30;99.90;;;;;;4969109;28;20446;-73
2022/08/22 04:15:38;;;;;;;0.70;0.40;;;20.30;99.90;;;;;;4976706;28;20450;-73
2022/08/22 04:18:35;;;;;;;0.67;0.10;;;20.30;99.90;;;;;;5005885;28;20482;-74
2022/08/22 04:21:22;;;;;;;0.70;0.20;;;20.30;99.90;;;;;;5009826;28;20989;-72
2022/08/22 04:24:28;;;;;;;0.70;0.20;;;20.30;99.90;;;;;;5015932;28;20455;-73
2022/08/22 04:27:01;;;;;;;0.70;0.10;;;20.30;99.90;;;;;;4971681;28;20456;-73
2022/08/22 04:29:35;;;;;;;0.70;0.10;;;20.20;99.90;;;;;;5005575;28;20489;-73
2022/08/22 04:32:07;;;;;;;0.70;0.13;;;20.20;99.90;;;;;;5052366;23;20503;-74
2022/08/22 04:34:48;;;;;;;0.60;0.10;;;20.20;99.90;;;;;;5017752;28;20440;-75
2022/08/22 04:37:23;;;;;;;0.70;0.20;;;20.20;99.90;;;;;;5027493;28;20443;-78
2022/08/22 04:39:56;;;;;;;0.60;0.20;;;20.10;99.90;;;;;;5035349;28;20454;-78
2022/08/22 04:42:33;;;;;;;0.70;0.20;;;20.10;99.90;;;;;;5019365;28;20460;-78
2022/08/22 04:45:05;;;;;;;0.70;0.20;;;20.20;99.90;;;;;;5015568;28;20488;-78
2022/08/22 04:47:37;;;;;;;0.70;0.10;;;20.10;99.90;;;;;;5017458;28;20431;-77
2022/08/22 04:50:14;;;;;;;0.60;0.10;;;20.20;99.90;;;;;;5016677;28;20445;-80
2022/08/22 04:52:54;;;;;;;0.60;0.10;;;20.20;99.90;;;;;;5017385;28;20490;-77
2022/08/22 04:55:32;;;;;;;0.60;0.10;;;20.20;99.90;;;;;;5015308;28;20444;-78
2022/08/22 04:58:11;;;;;;;0.70;0.20;;;20.20;99.90;;;;;;5015531;28;20790;-79
2022/08/22 05:00:44;;;;;;;0.60;0.20;;;20.30;99.90;;;;;;5015497;28;20448;-78
2022/08/22 05:03:16;;;;;;;0.70;0.20;;;20.20;99.90;;;;;;5016282;28;20504;-80
2022/08/22 05:05:49;;;;;;;0.70;0.10;;;20.30;99.90;;;;;;5016451;28;20480;-79
2022/08/22 05:08:22;;;;;;;0.70;0.10;;;20.30;99.90;;;;;;5016034;28;20443;-79
2022/08/22 05:10:51;;;;;;;0.67;0.10;;;20.20;99.90;;;;;;5014879;28;20479;-77
2022/08/22 05:13:24;;;;;;;0.70;0.10;;;20.20;99.90;;;;;;5014860;28;20468;-74
2022/08/22 05:15:57;;;;;;;0.70;0.10;;;20.10;99.90;;;;;;5014295;28;20456;-72
2022/08/22 05:18:28;;;;;;;0.60;0.13;;;20.10;99.90;;;;;;5013752;28;20456;-74
2022/08/22 05:21:02;;;;;;;0.70;0.10;;;20.10;99.90;;;;;;5013979;28;20468;-73
2022/08/22 05:23:36;;;;;;;0.70;0.10;;;20.10;99.90;;;;;;5014290;28;20444;-74
2022/08/22 05:26:06;;;;;;;0.60;0.10;;;20.10;99.90;;;;;;5014186;28;21006;-74
2022/08/22 05:28:37;;;;;;;0.70;0.10;;;20.10;99.90;;;;;;5014597;28;20440;-75
2022/08/22 05:31:08;;;;;;;0.70;0.10;;;20.20;99.90;;;;;;5028185;28;20486;-73
2022/08/22 05:33:42;;;;;;;0.70;0.10;;;20.20;99.90;;;;;;5021265;28;20471;-73
2022/08/22 05:36:15;;;;;;;0.60;0.10;;;20.20;99.90;;;;;;5006092;28;20440;-74
2022/08/22 05:38:49;;;;;;;0.70;0.10;;;20.30;99.90;;;;;;5013812;28;20528;-73
2022/08/22 05:41:22;;;;;;;0.70;0.20;;;20.40;99.90;;;;;;5013066;28;20978;-72
2022/08/22 05:43:51;;;;;;;0.67;0.10;;;20.40;99.90;;;;;;5015567;28;20839;-73
2022/08/22 05:46:22;;;;;;;0.60;0.17;;;20.30;99.90;;;;;;5012958;28;20542;-73
2022/08/22 05:48:57;;;;;;;0.70;0.10;;;20.30;99.90;;;;;;5012960;28;20447;-73
2022/08/22 05:51:33;;;;;;;0.60;0.10;;;20.30;99.90;;;;;;5011354;28;20563;-72
2022/08/22 05:54:12;;;;;;;0.60;0.20;;;20.40;99.90;;;;;;5011546;28;20464;-74
2022/08/22 05:56:43;;;;;;;0.70;0.20;;;20.40;99.90;;;;;;5012013;28;20918;-74
2022/08/22 05:59:22;;;;;;;0.70;0.13;;;20.40;99.90;;;;;;5005355;28;20543;-73
2022/08/22 06:02:00;;;;;;;0.70;0.10;;;20.50;99.90;;;;;;5012372;28;20464;-74
2022/08/22 06:04:35;;;;;;;0.70;0.10;;;20.50;99.90;;;;;;5011511;28;20432;-74
2022/08/22 06:07:08;;;;;;;0.70;0.10;;;20.50;99.90;;;;;;5013740;28;20480;-74
2022/08/22 06:10:01;;;;;;;0.63;0.20;;;20.50;99.90;;;;;;5014233;28;20514;-74
2022/08/22 06:12:35;;;;;;;0.70;0.10;;;20.50;99.90;;;;;;5014494;28;20612;-74
2022/08/22 06:15:11;;;;;;;0.70;0.10;;;20.50;99.90;;;;;;5032035;28;20846;-74
2022/08/22 06:17:44;;;;;;;0.60;0.10;;;20.60;99.90;;;;;;5034209;28;20447;-74
2022/08/22 06:20:17;;;;;;;0.70;0.20;;;20.50;99.90;;;;;;5034091;28;20555;-74
2022/08/22 06:22:51;;;;;;;0.60;0.20;;;20.50;99.90;;;;;;5033262;28;20472;-74
2022/08/22 06:25:24;;;;;;;0.70;0.20;;;20.50;99.90;;;;;;5033805;28;20448;-75
2022/08/22 06:27:53;;;;;;;0.70;0.33;;;20.60;99.90;;;;;;5033006;28;21031;-74
2022/08/22 06:30:23;;;;;;;0.70;0.20;;;20.70;99.90;;;;;;5016316;28;20452;-74
2022/08/22 06:32:55;;;;;;;0.70;0.20;;;20.80;99.90;;;;;;5013681;28;20539;-74
2022/08/22 06:36:29;;;;;;;0.70;0.20;;;20.90;99.90;;;;;;5013138;28;20458;-75
2022/08/22 06:38:24;;;;;;;0.70;0.17;;;20.90;99.90;;;;;;5014126;28;20449;-76
2022/08/22 06:40:54;;;;;;;0.70;0.20;;;21.10;99.90;;;;;;5014465;28;20483;-74
2022/08/22 06:43:24;;;;;;;0.70;0.10;;;21.10;99.90;;;;;;5014106;28;20474;-74
2022/08/22 06:45:53;;;;;;;0.70;0.10;;;21.20;99.90;;;;;;5012926;28;20480;-74
2022/08/22 06:48:23;;;;;;;0.70;0.20;;;21.20;99.90;;;;;;5012137;28;20728;-75
2022/08/22 06:50:57;;;;;;;0.70;0.10;;;21.30;99.90;;;;;;5012488;28;20461;-75
2022/08/22 06:53:32;;;;;;;0.70;0.10;;;21.40;99.90;;;;;;5010834;28;20440;-78
2022/08/22 06:56:04;;;;;;;0.70;0.30;;;21.50;99.90;;;;;;5011063;28;20443;-77
2022/08/22 06:58:36;;;;;;;0.70;0.10;;;21.50;99.90;;;;;;5012303;28;21030;-76
2022/08/22 07:01:09;;;;;;;0.70;0.13;;;21.60;99.90;;;;;;5012269;28;20958;-74
2022/08/22 07:03:41;;;;;;;0.80;0.40;;;21.60;99.90;;;;;;5012520;28;21001;-74
2022/08/22 07:06:15;;;;;;;0.70;0.10;;;21.60;99.90;;;;;;5011914;28;20503;-75
2022/08/22 07:08:46;;;;;;;0.70;0.10;;;21.60;99.90;;;;;;5012434;28;20475;-75
2022/08/22 07:11:17;;;;;;;0.70;0.20;;;21.60;99.90;;;;;;5012427;28;20468;-74
2022/08/22 07:13:51;;;;;;;0.70;0.10;;;21.60;99.90;;;;;;5012339;28;20451;-73
2022/08/22 07:16:28;;;;;;;0.70;0.10;;;21.70;99.90;;;;;;5012285;28;20466;-78
2022/08/22 07:18:56;;;;;;;0.70;0.20;;;21.70;99.90;;;;;;5012936;28;20962;-74
2022/08/22 07:21:27;;;;;;;0.70;0.10;;;21.80;99.90;;;;;;5012204;28;20461;-74
2022/08/22 07:24:00;;;;;;;0.70;0.10;;;21.80;99.90;;;;;;5012191;28;20502;-74
2022/08/22 07:26:33;;;;;;;0.70;0.10;;;21.90;99.90;;;;;;5011996;28;20484;-75
2022/08/22 07:29:06;;;;;;;0.70;0.20;;;21.90;99.90;;;;;;5012497;28;20439;-74
2022/08/22 07:31:45;;;;;;;0.70;0.20;;;21.90;99.90;;;;;;5014038;28;20923;-73
2022/08/22 07:34:31;;;;;;;0.70;0.10;;;22.00;99.90;;;;;;5015318;28;20452;-73
2022/08/22 07:37:02;;;;;;;0.70;0.10;;;22.00;99.90;;;;;;5017053;28;20943;-74
2022/08/22 07:39:36;;;;;;;0.70;0.13;;;22.10;99.90;;;;;;5016804;28;20482;-73
2022/08/22 07:42:10;;;;;;;0.70;0.10;;;22.20;99.90;;;;;;5016323;28;20478;-73
2022/08/22 07:44:56;;;;;;;0.70;0.20;;;22.20;99.90;;;;;;5015586;28;20448;-72
2022/08/22 07:47:28;;;;;;;0.70;0.10;;;;;;;;;;5014405;28;20476;-74
2022/08/22 07:50:02;;;;;;;0.80;0.30;;;22.30;99.90;;;;;;5016291;28;20498;-73
2022/08/22 07:52:38;;;;;;;0.70;0.20;;;22.30;99.90;;;;;;5015480;28;20492;-72
2022/08/22 07:55:16;;;;;;;0.70;0.10;;;22.40;99.90;;;;;;5019468;28;20447;-75
2022/08/22 07:57:48;;;;;;;0.70;0.10;;;22.60;99.90;;;;;;5016604;28;20447;-74
2022/08/22 08:00:19;;;;;;;0.70;0.17;;;22.60;99.90;;;;;;5015804;28;20441;-75
2022/08/22 08:02:50;;;;;;;0.70;0.10;;;22.70;99.90;;;;;;5016227;28;20579;-74
2022/08/22 08:05:21;;;;;;;0.70;0.10;;;22.80;99.90;;;;;;5016665;28;20474;-75
2022/08/22 08:07:51;;;;;;;0.70;0.10;;;22.80;99.90;;;;;;5018994;28;20484;-74
2022/08/22 08:10:27;;;;;;;1.27;0.90;;;22.80;99.90;;;;;;5022769;28;20448;-73
2022/08/22 08:13:02;;;;;;;0.70;0.10;;;22.90;99.90;;;;;;5020185;28;20452;-75
2022/08/22 08:15:32;;;;;;;0.70;0.20;;;22.90;99.90;;;;;;5017195;28;20442;-74
2022/08/22 08:18:05;;;;;;;0.70;0.20;;;22.80;99.90;;;;;;5023210;28;20432;-72
2022/08/22 08:20:35;;;;;;;0.70;0.20;;;22.80;99.90;;;;;;5026403;28;20551;-72
2022/08/22 08:23:06;;;;;;;0.70;0.10;;;22.90;99.90;;;;;;5016917;28;20458;-73
2022/08/22 08:25:51;;;;;;;0.70;0.20;;;22.90;99.90;;;;;;5015868;28;20479;-75
2022/08/22 08:28:36;;;;;;;0.70;0.20;;;23.00;99.90;;;;;;5014861;28;20538;-73
2022/08/22 08:31:19;;;;;;;0.70;0.20;;;23.10;99.90;;;;;;5014828;28;20498;-74
2022/08/22 08:33:50;;;;;;;0.70;0.20;;;23.10;99.90;;;;;;5014083;28;20966;-75
2022/08/22 08:36:31;;;;;;;0.70;0.13;;;23.20;99.90;;;;;;5014477;28;20963;-74
2022/08/22 08:39:11;;;;;;;0.70;0.20;;;23.30;99.90;;;;;;5014887;28;20450;-75
2022/08/22 08:42:08;;;;;;;0.70;0.10;;;23.40;99.90;;;;;;5027966;28;20494;-75
2022/08/22 08:45:04;;;;;;;0.70;0.20;;;23.40;99.90;;;;;;5033635;28;20501;-76
2022/08/22 08:47:45;;;;;;;0.70;0.20;;;23.50;99.90;;;;;;5028339;28;20478;-75
2022/08/22 08:50:36;;;;;;;0.70;0.20;;;23.60;99.90;;;;;;5018904;28;21019;-75
2022/08/22 08:53:43;;;;;;;0.70;0.10;;;23.60;99.90;;;;;;5015562;28;20459;-76
2022/08/22 08:56:21;;;;;;;0.70;0.10;;;23.70;99.90;;;;;;5027313;28;20448;-72
2022/08/22 08:59:02;;;;;;;0.70;0.20;;;23.80;99.90;;;;;;5014662;28;21005;-73
2022/08/22 09:01:58;;;;;;;0.70;0.20;;;24.00;99.90;;;;;;5015247;28;20459;-77
2022/08/22 09:04:47;;;;;;;0.70;0.20;;;24.10;99.90;;;;;;5017241;28;20846;-73
2022/08/22 09:07:40;;;;;;;0.70;0.10;;;24.10;99.90;;;;;;5018862;28;20490;-74
2022/08/22 09:10:37;;;;;;;0.70;0.20;;;24.20;99.90;;;;;;5017345;28;20528;-75
2022/08/22 09:13:31;;;;;;;0.70;0.10;;;24.30;99.90;;;;;;5000102;28;20535;-75
2022/08/22 09:16:25;;;;;;;0.70;0.10;;;24.40;99.90;;;;;;4996876;28;20433;-76
2022/08/22 09:19:17;;;;;;;0.80;0.40;;;24.60;99.90;;;;;;4996496;28;20977;-75
2022/08/22 09:22:04;;;;;;;0.70;0.10;;;24.70;99.90;;;;;;4996994;28;20731;-75
2022/08/22 09:25:16;;;;;;;0.70;0.20;;;24.70;99.90;;;;;;4995802;28;20789;-76
2022/08/22 09:27:53;;;;;;;0.70;0.10;;;24.80;99.90;;;;;;4987510;28;20930;-74
2022/08/22 09:30:25;;;;;;;0.70;0.10;;;24.90;99.90;;;;;;5012875;28;20440;-76
2022/08/22 09:33:02;;;;;;;0.70;0.17;;;25.10;99.90;;;;;;5013949;28;20495;-75
2022/08/22 09:35:42;;;;;;;0.70;0.13;;;25.10;99.90;;;;;;5013949;28;20939;-75
2022/08/22 09:38:25;;;;;;;0.70;0.17;;;25.20;99.90;;;;;;5014085;28;20515;-74
2022/08/22 09:41:01;;;;;;;0.70;0.20;;;25.30;99.90;;;;;;5013760;28;20461;-75
2022/08/22 09:43:37;;;;;;;0.70;0.20;;;25.40;99.90;;;;;;5013605;28;20543;-75
2022/08/22 09:46:20;;;;;;;0.70;0.10;;;25.40;99.90;;;;;;5013811;28;20445;-76
2022/08/22 09:49:04;;;;;;;0.70;0.30;;;25.60;99.90;;;;;;5029610;28;20479;-75
2022/08/22 09:51:41;;;;;;;0.70;0.20;;;25.70;99.90;;;;;;5024426;28;20460;-76
2022/08/22 09:54:22;;;;;;;0.70;0.10;;;25.80;99.90;;;;;;5014665;28;20447;-75
2022/08/22 09:57:14;;;;;;;0.70;0.10;;;25.90;99.90;;;;;;5012671;28;20854;-76
2022/08/22 10:00:15;;;;;;;0.70;0.20;;;25.90;99.90;;;;;;5014425;28;21028;-76
2022/08/22 10:02:52;;;;;;;0.70;0.20;;;26.00;99.90;;;;;;4997919;28;20472;-77
2022/08/22 10:05:27;;;;;;;1.20;0.50;;;26.00;99.90;;;;;;5031239;28;20481;-77
2022/08/22 10:08:18;;;;;;;0.70;0.20;;;26.10;99.90;;;;;;5034547;28;21000;-77
2022/08/22 10:11:02;;;;;;;0.70;0.10;;;26.30;99.90;;;;;;5023423;28;20468;-75
2022/08/22 10:13:45;;;;;;;0.70;0.20;;;26.30;99.90;;;;;;5014026;28;20459;-76
2022/08/22 10:16:24;;;;;;;0.70;0.10;;;26.40;99.90;;;;;;5000838;28;20923;-75
2022/08/22 10:19:06;;;;;;;0.70;0.20;;;26.60;99.90;;;;;;5019857;28;20456;-74
2022/08/22 10:21:44;;;;;;;0.70;0.10;;;26.60;99.90;;;;;;5016934;28;20567;-75
2022/08/22 10:24:26;;;;;;;0.70;0.20;;;26.70;99.90;;;;;;4993992;28;20451;-75
2022/08/22 10:26:57;;;;;;;0.70;0.13;;;26.80;99.90;;;;;;5030083;28;20459;-75
2022/08/22 10:29:50;;;;;;;0.70;0.20;;;26.90;99.90;;;;;;5022569;28;20476;-78
2022/08/22 10:32:30;;;;;;;0.70;0.10;;;27.00;99.90;;;;;;5043518;23;20502;-73
2022/08/22 10:35:11;;;;;;;0.70;0.20;;;27.10;99.90;;;;;;5053270;28;20873;-74
2022/08/22 10:37:53;;;;;;;0.70;0.20;;;27.10;99.90;;;;;;5053086;28;20449;-75
2022/08/22 10:40:27;;;;;;;0.70;0.13;;;27.20;99.90;;;;;;5052879;28;20492;-72
2022/08/22 10:43:02;;;;;;;0.70;0.20;;;27.40;99.90;;;;;;5052862;28;20461;-72
2022/08/22 10:45:34;;;;;;;0.70;0.17;;;27.40;99.90;;;;;;5047563;28;20860;-73
2022/08/22 10:48:33;;;;;;;0.70;0.10;;;27.40;99.90;;;;;;5032953;28;20545;-73
2022/08/22 10:51:21;;;;;;;0.70;0.20;;;27.40;99.90;;;;;;5042310;28;20454;-73
2022/08/22 10:54:23;;;;;;;1.33;1.17;;;27.30;99.90;;;;;;5043022;28;20849;-73
2022/08/22 10:56:59;;;;;;;0.70;0.20;;;27.10;99.90;;;;;;5041693;28;20465;-73
2022/08/22 10:59:37;;;;;;;0.80;0.40;;;26.90;99.90;;;;;;5052542;28;20474;-73
2022/08/22 11:02:31;;;;;;;0.70;0.10;;;27.20;99.90;;;;;;5049202;28;20520;-73
2022/08/22 11:05:35;;;;;;;0.70;0.20;;;27.20;99.90;;;;;;5052426;28;20974;-74
2022/08/22 11:08:15;;;;;;;0.70;0.10;;;27.20;99.90;;;;;;5038200;28;20482;-73
2022/08/22 11:11:07;;;;;;;0.70;0.10;;;27.10;99.90;;;;;;5041655;28;20448;-73
2022/08/22 11:13:46;;;;;;;0.70;0.10;;;26.90;99.90;;;;;;5032927;28;20467;-72
2022/08/22 11:16:33;;;;;;;0.70;0.10;;;26.90;99.90;;;;;;5045520;28;20831;-73
2022/08/22 11:19:15;;;;;;;0.70;0.20;;;26.90;99.90;;;;;;5041720;28;20451;-72
2022/08/22 11:22:00;;;;;;;0.70;0.10;;;27.10;99.90;;;;;;5036017;28;20455;-73
2022/08/22 11:25:13;;;;;;;0.70;0.10;;;27.20;99.90;;;;;;5024829;28;20450;-73
2022/08/22 11:28:20;;;;;;;0.70;0.10;;;27.40;99.90;;;;;;4962957;28;20443;-72
2022/08/22 11:31:02;;;;;;;0.70;0.10;;;27.50;99.90;;;;;;4965345;28;20455;-72
2022/08/22 11:33:40;;;;;;;0.70;0.10;;;27.40;99.90;;;;;;5029772;28;20471;-73
2022/08/22 11:36:32;;;;;;;0.70;0.10;;;27.40;99.90;;;;;;5034090;28;20443;-73
2022/08/22 11:39:11;;;;;;;0.70;0.10;;;27.40;99.90;;;;;;5032723;28;20455;-74
2022/08/22 11:41:51;;;;;;;0.90;0.63;;;27.80;99.90;;;;;;5037200;28;20442;-73
2022/08/22 11:44:29;;;;;;;0.70;0.20;;;27.80;99.90;;;;;;5037925;28;20434;-73
2022/08/22 11:47:01;;;;;;;0.70;0.20;;;28.20;99.90;;;;;;5051584;28;20442;-73
2022/08/22 11:49:37;;;;;;;0.70;0.10;;;28.10;99.90;;;;;;5020394;28;20471;-73
2022/08/22 11:52:11;;;;;;;0.70;0.20;;;28.40;99.90;;;;;;5034001;28;20475;-73
2022/08/22 11:54:52;;;;;;;0.70;0.20;;;28.40;99.90;;;;;;5035107;28;20455;-74
2022/08/22 11:57:30;;;;;;;0.70;0.20;;;28.60;99.90;;;;;;5038990;28;20450;-73
2022/08/22 12:00:18;;;;;;;0.70;0.20;;;28.70;99.90;;;;;;5052109;28;20837;-74
2022/08/22 12:03:05;;;;;;;0.70;0.20;;;28.90;99.90;;;;;;5035889;28;20555;-74
2022/08/22 12:05:43;;;;;;;0.70;0.20;;;28.90;99.90;;;;;;5049411;28;20932;-73
2022/08/22 12:08:17;;;;;;;0.70;0.20;;;29.00;99.90;;;;;;5028414;28;20463;-73
2022/08/22 12:10:56;;;;;;;0.70;0.20;;;29.00;99.90;;;;;;5040062;28;20454;-72
2022/08/22 12:13:35;;;;;;;0.70;0.10;;;28.90;99.90;;;;;;5031987;28;20510;-72
2022/08/22 12:16:11;;;;;;;0.70;0.20;;;28.90;99.90;;;;;;5051941;28;20468;-73
2022/08/22 12:18:50;;;;;;;0.70;0.10;;;28.90;99.90;;;;;;5043348;28;20838;-73
2022/08/22 12:21:35;;;;;;;0.70;0.10;;;29.00;99.90;;;;;;5029523;28;20451;-73
2022/08/22 12:24:33;;;;;;;0.70;0.20;;;29.20;99.90;;;;;;5015791;28;20444;-72
2022/08/22 12:27:40;;;;;;;0.70;0.10;;;29.20;99.90;;;;;;5025838;28;20447;-73
2022/08/22 12:30:21;;;;;;;0.70;0.20;;;29.10;99.90;;;;;;5030190;28;20482;-73
2022/08/22 12:33:15;;;;;;;0.70;0.20;;;28.90;99.90;;;;;;5035415;28;20562;-73
2022/08/22 12:36:03;;;;;;;0.70;0.10;;;28.80;99.90;;;;;;5044152;28;20509;-73
2022/08/22 12:38:49;;;;;;;0.70;0.13;;;28.80;99.90;;;;;;5039199;28;20447;-74
2022/08/22 12:41:29;;;;;;;0.70;0.10;;;;;;;;;;5035540;28;20485;-74
2022/08/22 12:44:17;;;;;;;0.70;0.10;;;29.00;99.90;;;;;;5045364;28;20457;-73
2022/08/22 12:46:57;;;;;;;0.70;0.20;;;29.10;99.90;;;;;;5039348;28;20443;-73
2022/08/22 12:49:37;;;;;;;0.70;0.10;;;29.10;99.90;;;;;;5038181;28;20470;-73
2022/08/22 12:52:23;;;;;;;0.70;0.20;;;29.20;99.90;;;;;;5039886;28;20964;-73
2022/08/22 12:55:23;;;;;;;0.80;0.20;;;29.20;99.90;;;;;;5015127;28;20444;-74
2022/08/22 12:58:01;;;;;;;0.70;0.20;;;29.10;99.90;;;;;;5039650;28;20492;-72
2022/08/22 13:00:34;;;;;;;0.70;0.10;;;29.10;99.90;;;;;;5044949;28;20466;-73
2022/08/22 13:03:07;;;;;;;0.70;0.20;;;29.20;99.90;;;;;;5047677;28;20531;-73
2022/08/22 13:05:40;;;;;;;0.70;0.20;;;29.30;99.90;;;;;;5054263;28;20505;-72
2022/08/22 13:08:15;;;;;;;0.70;0.20;;;29.40;99.90;;;;;;5037941;28;20450;-73
2022/08/22 13:10:47;;;;;;;0.70;0.20;;;29.50;99.90;;;;;;5044486;28;20555;-73
2022/08/22 13:13:27;;;;;;;0.70;0.10;;;29.70;99.90;;;;;;5072193;28;20467;-74
2022/08/22 13:16:07;;;;;;;0.70;0.10;;;29.80;99.90;;;;;;5070936;28;20509;-73
2022/08/22 13:18:47;;;;;;;0.70;0.17;;;30.00;99.90;;;;;;5050355;28;20482;-72
2022/08/22 13:21:26;;;;;;;0.70;0.10;;;29.80;99.90;;;;;;5038654;28;20458;-73
2022/08/22 13:24:06;;;;;;;0.70;0.10;;;27.70;99.90;;;;;;5052056;28;20450;-72
2022/08/22 13:26:45;;;;;;;0.70;0.10;;;29.80;99.90;;;;;;5055234;28;20521;-72
2022/08/22 13:29:19;;;;;;;0.70;0.10;;;29.80;99.90;;;;;;5045602;28;20483;-73
2022/08/22 13:32:10;;;;;;;0.70;0.20;;;29.90;99.90;;;;;;5034128;28;20865;-73
2022/08/22 13:34:43;;;;;;;0.70;0.20;;;30.00;99.90;;;;;;5034257;28;20739;-72
2022/08/22 13:37:16;;;;;;;0.70;0.20;;;29.90;99.90;;;;;;5034536;28;20447;-73
2022/08/22 13:39:49;;;;;;;0.70;0.20;;;30.00;99.90;;;;;;5034470;28;20517;-73
2022/08/22 13:42:22;;;;;;;0.70;0.10;;;30.10;99.90;;;;;;5036874;28;20946;-73
2022/08/22 13:45:00;;;;;;;0.70;0.10;;;30.10;99.90;;;;;;5043608;28;20948;-72
2022/08/22 13:47:31;;;;;;;0.70;0.10;;;30.10;99.90;;;;;;5034445;28;20475;-72
2022/08/22 13:50:08;;;;;;;1.10;0.60;;;30.10;99.90;;;;;;5043604;28;20488;-72
2022/08/22 13:52:46;;;;;;;0.70;0.20;;;29.90;99.90;;;;;;5041627;28;20834;-72
2022/08/22 13:55:29;;;;;;;0.70;0.10;;;29.90;99.90;;;;;;5036354;28;20444;-72
2022/08/22 13:58:02;;;;;;;0.70;0.10;;;29.90;99.90;;;;;;5034029;28;20458;-72
2022/08/22 14:01:07;;;;;;;0.70;0.20;;;28.00;99.90;;;;;;5038536;28;20498;-73